Time;durP1;ratioP1;P1;durP2;ratioP2;P2;SDS_P1;SDS_P2;PMS_P1;PMS_P2;Temp;Humidity;BMP_temperature;BMP_pressure;BME280_temperature;BME280_humidity;BME280_pressure;Samples;Min_cycle;Max_cycle;Signal;HPM_P1;HPM_P2
2022/01/01 00:00:14;;;;;;;123.42;70.00;;;;;;;2.82;82.72;101066.52;1777661;80;25777;-59
2022/01/01 00:02:43;;;;;;;124.72;67.30;;;;;;;2.81;82.65;101069.27;1769411;79;25740;-60
2022/01/01 00:05:13;;;;;;;124.45;70.92;;;;;;;2.84;82.96;101072.23;1788040;79;25786;-60
2022/01/01 00:07:40;;;;;;;124.25;70.87;;;;;;;2.85;82.83;101081.47;1764238;78;25794;-60
2022/01/01 00:10:11;;;;;;;115.47;67.05;;;;;;;2.81;82.27;101071.92;1804651;78;28314;-60
2022/01/01 00:12:43;;;;;;;135.07;77.15;;;;;;;2.69;81.71;101059.28;1809985;78;25782;-60
2022/01/01 00:15:10;;;;;;;161.20;87.27;;;;;;;2.58;81.48;101051.84;1794317;78;25725;-60
2022/01/01 00:17:39;;;;;;;183.42;97.50;;;;;;;2.47;81.57;101045.75;1799252;78;26218;-61
2022/01/01 00:20:09;;;;;;;148.70;87.57;;;;;;;2.39;81.80;101054.58;1802717;78;25454;-60
2022/01/01 00:22:42;;;;;;;164.43;88.72;;;;;;;2.35;81.99;101049.89;1804206;78;26858;-61
2022/01/01 00:25:12;;;;;;;159.93;91.37;;;;;;;2.30;82.06;101042.15;1758211;81;25862;-60
2022/01/01 00:27:40;;;;;;;140.57;74.80;;;;;;;2.30;82.32;101037.29;1776187;80;26470;-59
2022/01/01 00:30:12;;;;;;;110.28;65.62;;;;;;;2.34;83.14;101038.88;1803757;78;25786;-60
2022/01/01 00:32:39;;;;;;;120.57;66.22;;;;;;;2.41;84.40;101034.97;1769983;79;25838;-60
2022/01/01 00:35:07;;;;;;;103.53;56.63;;;;;;;2.51;84.55;101030.03;1814572;78;27471;-60
2022/01/01 00:37:34;;;;;;;80.45;47.35;;;;;;;2.62;84.74;101030.84;1778388;79;25959;-60
2022/01/01 00:40:02;;;;;;;109.37;61.30;;;;;;;2.73;84.83;101028.95;1776686;79;25814;-60
2022/01/01 00:42:28;;;;;;;88.65;48.65;;;;;;;2.81;84.42;101028.96;1790272;79;26143;-60
2022/01/01 00:44:55;;;;;;;100.87;57.83;;;;;;;2.90;84.92;101030.75;1809013;78;25737;-60
2022/01/01 00:47:22;;;;;;;66.67;37.13;;;;;;;2.97;84.37;101026.82;1794916;78;28208;-60
2022/01/01 00:49:49;;;;;;;92.20;53.92;;;;;;;3.00;84.15;101020.02;1781079;79;25814;-60
2022/01/01 00:52:16;;;;;;;94.65;53.87;;;;;;;3.06;83.94;101017.48;1783373;79;25771;-60
2022/01/01 00:54:43;;;;;;;102.17;54.27;;;;;;;3.05;83.26;101010.48;1793682;79;26628;-61
2022/01/01 00:57:12;;;;;;;91.75;53.78;;;;;;;3.02;83.02;101007.48;1785551;79;25873;-61
2022/01/01 00:59:38;;;;;;;99.60;55.33;;;;;;;3.03;82.43;101014.52;1788997;79;28216;-60
2022/01/01 01:02:05;;;;;;;96.02;55.28;;;;;;;2.93;81.87;101015.50;1768138;79;25920;-60
2022/01/01 01:04:34;;;;;;;92.50;51.55;;;;;;;2.90;82.29;101020.11;1767773;81;25706;-60
2022/01/01 01:07:02;;;;;;;90.90;50.83;;;;;;;2.89;82.36;101022.38;1777355;79;25785;-61
2022/01/01 01:09:31;;;;;;;92.53;53.35;;;;;;;2.91;82.56;101018.70;1775749;80;25771;-61
2022/01/01 01:11:58;;;;;;;91.17;50.75;;;;;;;2.96;82.77;101021.95;1779255;79;27857;-60
2022/01/01 01:14:27;;;;;;;85.67;51.05;;;;;;;3.03;82.69;101023.83;1799683;79;25654;-61
2022/01/01 01:16:55;;;;;;;88.95;51.68;;;;;;;3.07;83.00;101028.51;1799394;79;25745;-60
2022/01/01 01:19:22;;;;;;;91.25;49.03;;;;;;;3.06;82.52;101029.45;1799721;79;25745;-61
2022/01/01 01:21:50;;;;;;;88.20;47.50;;;;;;;3.06;82.05;101030.32;1799328;79;25688;-60
2022/01/01 01:24:18;;;;;;;85.87;50.78;;;;;;;3.04;82.12;101027.36;1799629;79;27369;-61
2022/01/01 01:26:49;;;;;;;87.65;49.80;;;;;;;3.00;81.86;101024.46;1788500;79;25693;-61
2022/01/01 01:29:14;;;;;;;97.15;51.28;;;;;;;3.00;82.08;101012.05;1761817;80;25701;-60
2022/01/01 01:31:40;;;;;;;88.67;51.90;;;;;;;3.04;82.53;101009.60;1761867;81;25850;-61
2022/01/01 01:34:10;;;;;;;91.47;54.15;;;;;;;3.05;82.40;101011.32;1761768;81;25708;-60
2022/01/01 01:36:38;;;;;;;92.55;55.83;;;;;;;3.03;82.00;101005.22;1796322;79;27556;-60
2022/01/01 01:39:09;;;;;;;108.63;59.35;;;;;;;3.01;82.00;100999.61;1799349;79;25789;-61
2022/01/01 01:41:38;;;;;;;103.60;59.93;;;;;;;2.96;81.86;101002.51;1765400;79;25649;-60
2022/01/01 01:44:30;;;;;;;96.87;57.80;;;;;;;2.90;81.74;101010.33;1774448;80;25772;-61
2022/01/01 01:47:00;;;;;;;102.27;59.60;;;;;;;2.79;81.31;101014.02;1771142;80;25484;-60
2022/01/01 01:49:26;;;;;;;105.32;58.25;;;;;;;2.66;80.91;101023.09;1756833;79;27504;-60
2022/01/01 01:51:56;;;;;;;106.45;62.38;;;;;;;2.60;81.17;101016.77;1764034;79;25719;-60
2022/01/01 01:54:25;;;;;;;100.95;58.92;;;;;;;2.56;81.18;101008.55;1729213;81;25765;-61
2022/01/01 01:56:53;;;;;;;95.30;57.58;;;;;;;2.52;81.21;101008.34;1761362;81;26168;-61
2022/01/01 01:59:19;;;;;;;98.45;54.15;;;;;;;2.45;81.09;101007.78;1761574;81;25676;-61
2022/01/01 02:01:46;;;;;;;86.10;50.90;;;;;;;2.42;81.18;101001.33;1761262;81;28244;-60
2022/01/01 02:04:13;;;;;;;80.42;47.78;;;;;;;2.41;81.28;100988.50;1729057;81;25822;-61
2022/01/01 02:06:42;;;;;;;80.75;46.02;;;;;;;2.42;81.35;100982.73;1770699;79;25686;-61
2022/01/01 02:09:11;;;;;;;70.10;41.05;;;;;;;2.43;81.52;100986.63;1762031;79;25759;-61
2022/01/01 02:11:40;;;;;;;59.23;35.20;;;;;;;2.44;81.60;100984.38;1762184;81;25779;-61
2022/01/01 02:14:17;;;;;;;83.47;45.43;;;;;;;2.53;82.62;100972.40;1761434;81;27871;-60
2022/01/01 02:19:32;;;;;;;75.92;43.58;;;;;;;2.63;82.28;100976.30;1761753;81;25786;-60
2022/01/01 02:22:03;;;;;;;;;;;;;;;2.69;82.57;100979.11;1737100;79;25813;-60
2022/01/01 02:24:28;;;;;;;72.50;42.53;;;;;;;2.71;82.34;100977.23;1799162;79;25906;-60
2022/01/01 02:26:54;;;;;;;64.40;39.78;;;;;;;2.72;82.36;100965.67;1799624;79;27499;-61
2022/01/01 02:29:23;;;;;;;69.80;40.75;;;;;;;2.77;82.38;100967.61;1799347;79;25637;-60
2022/01/01 02:31:51;;;;;;;62.53;38.80;;;;;;;2.78;82.14;100968.00;1762705;81;25724;-60
2022/01/01 02:34:20;;;;;;;64.55;39.53;;;;;;;2.82;82.10;100963.38;1776833;79;26352;-60
2022/01/01 02:36:47;;;;;;;64.97;37.88;;;;;;;2.87;82.09;100955.16;1799287;79;26008;-60
2022/01/01 02:39:21;;;;;;;64.50;39.65;;;;;;;2.94;82.39;100945.91;1799543;79;27373;-61
2022/01/01 02:41:51;;;;;;;60.03;38.38;;;;;;;3.00;82.00;100939.41;1795172;79;25783;-61
2022/01/01 02:44:24;;;;;;;70.42;38.05;;;;;;;3.04;82.30;100940.49;1760331;81;25671;-60
2022/01/01 02:46:56;;;;;;;62.50;35.03;;;;;;;3.03;82.20;100944.58;1761805;80;25798;-60
2022/01/01 02:49:24;;;;;;;62.60;37.60;;;;;;;3.00;82.03;100940.29;1780765;80;25842;-61
2022/01/01 02:51:51;;;;;;;67.72;38.67;;;;;;;3.02;82.00;100933.55;1785826;79;27502;-61
2022/01/01 02:54:18;;;;;;;58.70;34.27;;;;;;;3.04;82.16;100930.34;1802373;79;27223;-60
2022/01/01 02:56:45;;;;;;;66.28;36.80;;;;;;;3.03;82.11;100929.47;1802878;79;25755;-61
2022/01/01 02:59:12;;;;;;;61.85;33.80;;;;;;;3.02;82.23;100927.75;1802470;79;25812;-60
2022/01/01 03:01:39;;;;;;;61.40;35.80;;;;;;;3.07;82.25;100924.39;1802382;79;25447;-61
2022/01/01 03:04:05;;;;;;;65.12;36.88;;;;;;;3.11;82.29;100914.45;1791444;79;28158;-60
2022/01/01 03:06:32;;;;;;;62.35;34.75;;;;;;;3.17;82.49;100915.42;1767667;81;25792;-60
2022/01/01 03:09:01;;;;;;;67.55;38.63;;;;;;;3.18;82.17;100913.64;1767539;81;25513;-59
2022/01/01 03:11:28;;;;;;;65.50;35.30;;;;;;;3.11;81.98;100911.78;1767583;81;25803;-61
2022/01/01 03:13:54;;;;;;;72.25;37.40;;;;;;;3.09;82.00;100901.22;1767466;81;25699;-60
2022/01/01 03:16:24;;;;;;;65.45;35.35;;;;;;;3.10;82.01;100901.61;1767523;81;28218;-60
2022/01/01 03:18:53;;;;;;;57.83;32.85;;;;;;;3.08;81.86;100901.31;1778839;79;26042;-61
2022/01/01 03:21:20;;;;;;;62.60;34.33;;;;;;;3.05;81.86;100894.37;1802495;79;25740;-61
2022/01/01 03:23:47;;;;;;;59.65;33.83;;;;;;;3.07;81.89;100895.61;1802229;79;25720;-61
2022/01/01 03:26:14;;;;;;;59.03;32.88;;;;;;;3.08;82.05;100898.20;1802438;79;25694;-60
2022/01/01 03:28:42;;;;;;;61.18;33.42;;;;;;;3.18;82.32;100901.67;1802388;79;27459;-61
2022/01/01 03:31:09;;;;;;;61.55;34.30;;;;;;;3.14;81.74;100894.31;1802362;79;25896;-61
2022/01/01 03:33:38;;;;;;;61.88;34.50;;;;;;;3.17;81.77;100906.60;1791245;79;25613;-61
2022/01/01 03:36:05;;;;;;;61.10;35.23;;;;;;;3.02;80.70;100899.84;1760610;81;25816;-60
2022/01/01 03:38:33;;;;;;;65.25;37.05;;;;;;;2.88;80.71;100900.59;1767283;81;25750;-60
2022/01/01 03:41:01;;;;;;;60.98;35.63;;;;;;;2.79;80.91;100886.03;1766226;81;27601;-60
2022/01/01 03:43:27;;;;;;;61.85;36.45;;;;;;;2.77;81.00;100883.08;1777889;80;25823;-61
2022/01/01 03:45:56;;;;;;;61.53;36.03;;;;;;;2.71;80.82;100890.03;1780833;80;25701;-60
2022/01/01 03:48:25;;;;;;;61.25;37.28;;;;;;;2.65;80.80;100884.12;1787372;79;25801;-61
2022/01/01 03:50:52;;;;;;;71.77;38.13;;;;;;;2.61;80.68;100883.03;1801955;79;25677;-60
2022/01/01 03:53:19;;;;;;;69.72;37.80;;;;;;;2.59;80.91;100883.58;1771279;79;28137;-61
2022/01/01 03:55:46;;;;;;;66.07;38.13;;;;;;;2.59;81.01;100882.25;1767266;81;25822;-61
2022/01/01 03:58:13;;;;;;;73.15;38.10;;;;;;;2.57;80.95;100885.45;1767546;81;25802;-61
2022/01/01 04:00:40;;;;;;;63.70;37.08;;;;;;;2.54;80.95;100879.84;1767202;81;25952;-61
2022/01/01 04:03:10;;;;;;;66.28;36.45;;;;;;;2.53;80.97;100874.63;1792738;79;25733;-60
2022/01/01 04:05:43;;;;;;;65.47;35.60;;;;;;;2.54;81.02;100876.34;1802404;79;27468;-61
2022/01/01 04:08:14;;;;;;;61.88;34.20;;;;;;;2.53;81.08;100878.12;1802757;79;25757;-61
2022/01/01 04:10:41;;;;;;;56.40;31.62;;;;;;;2.56;81.27;100871.78;1802574;79;25654;-61
2022/01/01 04:13:10;;;;;;;58.48;32.38;;;;;;;2.57;81.34;100876.16;1802668;79;26633;-59
2022/01/01 04:15:40;;;;;;;55.88;31.05;;;;;;;2.57;81.43;100882.80;1802750;78;25801;-60
2022/01/01 04:18:12;;;;;;;51.73;30.70;;;;;;;2.60;81.30;100883.97;1773467;79;28265;-60
2022/01/01 04:20:39;;;;;;;53.60;30.80;;;;;;;2.63;81.44;100882.48;1767416;79;25734;-60
2022/01/01 04:23:13;;;;;;;48.95;30.00;;;;;;;2.65;81.55;100877.48;1767865;81;25902;-59
2022/01/01 04:25:39;;;;;;;47.58;29.85;;;;;;;2.70;81.52;100882.54;1783445;79;25793;-60
2022/01/01 04:28:06;;;;;;;53.83;31.23;;;;;;;2.75;81.58;100887.61;1778485;79;25756;-60
2022/01/01 04:30:33;;;;;;;52.40;29.00;;;;;;;2.76;81.27;100896.81;1767698;81;27538;-61
2022/01/01 04:33:00;;;;;;;52.35;29.98;;;;;;;2.81;81.55;100900.55;1767739;81;25844;-60
2022/01/01 04:35:29;;;;;;;53.33;31.07;;;;;;;2.80;81.03;100903.69;1767626;81;25835;-60
2022/01/01 04:37:56;;;;;;;53.30;29.45;;;;;;;2.81;81.26;100901.87;1767520;81;25778;-60
2022/01/01 04:40:24;;;;;;;50.55;29.52;;;;;;;2.85;81.37;100903.44;1767856;81;25865;-60
2022/01/01 04:42:52;;;;;;;54.95;31.15;;;;;;;2.87;81.37;100902.02;1755595;79;27555;-60
2022/01/01 04:45:19;;;;;;;52.78;28.60;;;;;;;2.91;81.46;100896.45;1736442;82;25794;-61
2022/01/01 04:47:46;;;;;;;50.67;28.25;;;;;;;2.96;81.30;100901.52;1757948;80;25738;-60
2022/01/01 04:50:12;;;;;;;55.20;30.85;;;;;;;3.02;81.27;100902.50;1797443;79;25803;-60
2022/01/01 04:52:39;;;;;;;48.20;28.67;;;;;;;3.05;81.15;100899.69;1776969;79;26431;-60
2022/01/01 04:55:08;;;;;;;51.53;31.40;;;;;;;3.05;80.70;100903.67;1765363;81;27414;-60
2022/01/01 04:57:34;;;;;;;54.95;31.50;;;;;;;3.06;80.64;100900.08;1765603;81;25735;-60
2022/01/01 05:00:02;;;;;;;59.25;34.45;;;;;;;3.04;80.58;100901.11;1765451;81;25795;-60
2022/01/01 05:02:29;;;;;;;56.08;34.15;;;;;;;3.03;80.57;100891.42;1765714;81;26445;-60
2022/01/01 05:04:56;;;;;;;55.85;32.90;;;;;;;3.05;80.76;100894.37;1765698;81;26334;-60
2022/01/01 05:07:23;;;;;;;65.62;36.20;;;;;;;3.05;80.72;100895.70;1765721;81;28774;-60
2022/01/01 05:09:50;;;;;;;57.55;34.65;;;;;;;3.06;80.66;100889.45;1765639;79;25762;-60
2022/01/01 05:12:20;;;;;;;60.92;35.10;;;;;;;3.01;80.21;100886.16;1765534;81;25740;-60
2022/01/01 05:14:47;;;;;;;62.40;36.80;;;;;;;2.97;80.40;100884.15;1765702;81;25809;-60
2022/01/01 05:17:14;;;;;;;57.05;32.95;;;;;;;2.95;80.49;100890.05;1766029;81;25925;-60
2022/01/01 05:19:41;;;;;;;58.83;33.08;;;;;;;2.90;80.15;100888.09;1765761;81;27515;-60
2022/01/01 05:22:08;;;;;;;53.42;33.95;;;;;;;2.82;79.84;100889.83;1765457;81;25880;-60
2022/01/01 05:24:35;;;;;;;55.20;32.80;;;;;;;2.73;79.74;100886.38;1765489;81;25755;-60
2022/01/01 05:27:03;;;;;;;50.52;30.35;;;;;;;2.64;79.64;100893.50;1787051;80;25788;-60
2022/01/01 05:29:29;;;;;;;55.55;28.20;;;;;;;2.60;79.89;100904.73;1787428;80;25846;-59
2022/01/01 05:31:56;;;;;;;57.13;30.27;;;;;;;2.51;79.51;100906.55;1787264;80;27476;-59
2022/01/01 05:34:23;;;;;;;48.63;29.55;;;;;;;2.45;79.74;100909.08;1787652;80;25792;-60
2022/01/01 05:36:52;;;;;;;49.98;28.70;;;;;;;2.43;79.91;100910.08;1787494;80;25805;-59
2022/01/01 05:39:18;;;;;;;54.53;28.15;;;;;;;2.44;80.25;100906.48;1783019;80;25939;-59
2022/01/01 05:41:52;;;;;;;48.73;28.73;;;;;;;2.46;80.49;100904.16;1767221;80;25860;-60
2022/01/01 05:44:18;;;;;;;47.80;27.62;;;;;;;2.47;80.43;100912.98;1765183;81;29575;-60
2022/01/01 05:46:44;;;;;;;42.38;25.35;;;;;;;2.49;80.73;100913.28;1765780;80;26065;-60
2022/01/01 05:49:11;;;;;;;46.65;25.70;;;;;;;2.54;81.03;100913.03;1769856;78;25789;-60
2022/01/01 05:51:40;;;;;;;40.20;24.43;;;;;;;2.61;81.29;100916.23;1769523;81;25801;-59
2022/01/01 05:54:07;;;;;;;41.20;24.18;;;;;;;2.66;81.15;100928.79;1769486;81;25705;-60
2022/01/01 05:56:34;;;;;;;45.75;24.12;;;;;;;2.73;81.40;100910.73;1781320;80;27480;-59
2022/01/01 05:59:01;;;;;;;40.05;23.80;;;;;;;2.79;81.29;100915.70;1780879;80;26406;-59
2022/01/01 06:01:31;;;;;;;44.18;22.65;;;;;;;2.84;81.28;100915.46;1781127;80;25710;-59
2022/01/01 06:03:58;;;;;;;40.10;23.15;;;;;;;2.88;81.24;100928.50;1784298;80;25792;-60
2022/01/01 06:06:25;;;;;;;40.05;23.18;;;;;;;2.90;81.08;100927.95;1788538;80;25719;-60
2022/01/01 06:08:52;;;;;;;38.90;22.00;;;;;;;2.94;81.16;100933.95;1774571;80;27448;-61
2022/01/01 06:11:19;;;;;;;38.92;22.00;;;;;;;3.02;81.28;100934.88;1780218;80;25782;-60
2022/01/01 06:13:45;;;;;;;39.50;21.70;;;;;;;3.06;81.00;100941.27;1780671;80;25747;-60
2022/01/01 06:16:12;;;;;;;34.58;21.77;;;;;;;3.11;81.09;100938.37;1780378;80;25821;-61
2022/01/01 06:18:39;;;;;;;38.30;21.85;;;;;;;3.17;81.12;100947.81;1776531;80;25683;-59
2022/01/01 06:21:05;;;;;;;36.73;22.17;;;;;;;3.22;81.11;100950.61;1773310;80;28196;-60
2022/01/01 06:23:36;;;;;;;41.02;23.95;;;;;;;3.24;80.83;100951.84;1772730;80;25444;-60
2022/01/01 06:26:01;;;;;;;46.40;25.52;;;;;;;3.28;81.30;100949.38;1772070;80;25686;-60
2022/01/01 06:28:30;;;;;;;45.23;25.60;;;;;;;3.35;81.52;100958.77;1772616;80;25803;-60
2022/01/01 06:30:56;;;;;;;37.98;21.93;;;;;;;3.43;81.71;100956.53;1772576;80;25794;-60
2022/01/01 06:33:23;;;;;;;37.08;22.67;;;;;;;3.49;81.89;100956.67;1772783;80;27472;-60
2022/01/01 06:35:50;;;;;;;38.13;22.58;;;;;;;3.53;81.61;100958.20;1772650;80;25995;-60
2022/01/01 06:38:17;;;;;;;37.48;22.82;;;;;;;3.50;80.67;100963.67;1772671;80;25667;-60
2022/01/01 06:40:45;;;;;;;39.95;22.93;;;;;;;3.44;80.34;100960.91;1777852;80;25848;-61
2022/01/01 06:43:21;;;;;;;36.88;23.12;;;;;;;3.39;80.14;100970.93;1774964;80;25791;-61
2022/01/01 06:45:46;;;;;;;35.40;22.80;;;;;;;3.36;79.95;100975.56;1772558;79;27479;-60
2022/01/01 06:48:13;;;;;;;36.65;21.73;;;;;;;3.31;79.67;100982.95;1772901;80;26029;-60
2022/01/01 06:50:40;;;;;;;39.03;23.52;;;;;;;3.24;79.58;100986.41;1772605;80;25768;-61
2022/01/01 06:53:07;;;;;;;49.45;25.57;;;;;;;3.17;79.59;100987.69;1761715;80;25840;-61
2022/01/01 06:55:35;;;;;;;43.83;25.00;;;;;;;3.14;79.65;100992.67;1758925;81;25819;-60
2022/01/01 06:58:03;;;;;;;45.10;24.90;;;;;;;3.15;79.95;100998.87;1758847;81;27471;-60
2022/01/01 07:00:33;;;;;;;40.45;24.90;;;;;;;3.11;79.92;101001.68;1761404;80;25850;-61
2022/01/01 07:03:00;;;;;;;41.23;23.07;;;;;;;3.10;79.87;101010.59;1772700;80;25729;-61
2022/01/01 07:05:27;;;;;;;38.28;23.57;;;;;;;3.07;79.95;101006.79;1772622;80;25795;-60
2022/01/01 07:07:53;;;;;;;43.83;22.25;;;;;;;3.09;79.88;101017.33;1772546;80;25839;-61
2022/01/01 07:10:20;;;;;;;37.15;21.80;;;;;;;3.10;79.95;101013.25;1778668;80;28158;-61
2022/01/01 07:12:50;;;;;;;40.90;20.82;;;;;;;3.12;80.33;101018.51;1780267;80;25660;-60
2022/01/01 07:15:17;;;;;;;33.53;20.15;;;;;;;3.17;80.39;101027.08;1780184;80;25758;-60
2022/01/01 07:17:44;;;;;;;36.63;19.92;;;;;;;3.21;80.54;101015.36;1780688;80;25761;-60
2022/01/01 07:20:13;;;;;;;32.00;17.02;;;;;;;3.28;81.10;101015.86;1779718;80;25774;-60
2022/01/01 07:22:45;;;;;;;34.05;19.57;;;;;;;3.39;81.70;101002.00;1780337;80;27418;-60
2022/01/01 07:25:13;;;;;;;44.35;19.30;;;;;;;3.54;82.31;101002.96;1780340;80;25701;-60
2022/01/01 07:27:40;;;;;;;36.33;18.67;;;;;;;3.70;82.68;101017.13;1780443;80;25739;-60
2022/01/01 07:30:10;;;;;;;31.82;17.67;;;;;;;3.84;82.79;101015.47;1780332;80;25789;-60
2022/01/01 07:32:46;;;;;;;30.92;17.73;;;;;;;3.96;82.64;101020.56;1780618;80;25704;-60
2022/01/01 07:35:16;;;;;;;33.85;19.48;;;;;;;4.06;82.49;101024.42;1777541;80;28718;-60
2022/01/01 07:37:43;;;;;;;31.20;18.37;;;;;;;4.15;82.35;101028.38;1773060;80;25777;-60
2022/01/01 07:40:14;;;;;;;33.95;18.17;;;;;;;4.23;82.26;101034.12;1772955;80;25702;-61
2022/01/01 07:42:44;;;;;;;39.15;19.62;;;;;;;4.35;82.52;101025.39;1772375;80;26505;-60
2022/01/01 07:45:11;;;;;;;32.53;18.48;;;;;;;4.48;82.55;101025.53;1771649;80;25969;-60
2022/01/01 07:47:38;;;;;;;38.75;21.05;;;;;;;4.59;82.26;101034.24;1772600;80;27474;-60
2022/01/01 07:50:08;;;;;;;30.92;18.07;;;;;;;4.73;82.32;101037.88;1774502;80;27284;-60
2022/01/01 07:52:35;;;;;;;33.90;17.48;;;;;;;4.81;81.66;101044.48;1767437;80;25640;-60
2022/01/01 07:55:02;;;;;;;30.50;17.65;;;;;;;4.83;80.92;101047.92;1758971;81;25792;-60
2022/01/01 07:57:29;;;;;;;33.18;19.95;;;;;;;4.81;80.54;101048.94;1758975;81;25960;-61
2022/01/01 07:59:56;;;;;;;33.42;20.60;;;;;;;4.83;80.41;101044.38;1758967;80;27458;-60
2022/01/01 08:02:23;;;;;;;40.85;21.10;;;;;;;4.84;79.78;101038.09;1758747;81;25778;-61
2022/01/01 08:04:50;;;;;;;39.23;21.60;;;;;;;4.77;79.11;101041.59;1758806;81;25695;-61
2022/01/01 08:07:18;;;;;;;32.73;19.23;;;;;;;4.63;78.84;101043.75;1778519;80;25804;-61
2022/01/01 08:09:44;;;;;;;30.15;18.82;;;;;;;4.58;79.47;101044.52;1780462;80;25774;-60
2022/01/01 08:12:11;;;;;;;41.15;23.32;;;;;;;4.58;79.69;101044.52;1780473;80;28189;-61
2022/01/01 08:14:38;;;;;;;40.03;23.05;;;;;;;4.55;79.71;101054.01;1776838;80;25725;-60
2022/01/01 08:17:06;;;;;;;42.78;24.30;;;;;;;4.55;79.65;101056.67;1779670;80;25787;-61
2022/01/01 08:19:33;;;;;;;50.95;26.33;;;;;;;4.52;79.85;101060.87;1780592;80;25769;-60
2022/01/01 08:22:01;;;;;;;29.02;17.85;;;;;;;4.52;79.93;101070.20;1780353;80;25740;-60
2022/01/01 08:24:27;;;;;;;23.20;14.43;;;;;;;4.50;80.81;101080.92;1780436;80;27501;-61
2022/01/01 08:26:55;;;;;;;26.73;15.10;;;;;;;4.55;82.21;101076.66;1780319;80;25771;-61
2022/01/01 08:29:22;;;;;;;26.95;16.02;;;;;;;4.62;82.42;101079.34;1780310;80;25760;-61
2022/01/01 08:31:51;;;;;;;24.80;13.35;;;;;;;4.68;82.19;101081.66;1775760;80;25843;-61
2022/01/01 08:34:22;;;;;;;29.05;13.62;;;;;;;4.75;82.36;101079.95;1772696;80;25745;-61
2022/01/01 08:36:49;;;;;;;33.50;17.92;;;;;;;4.82;82.25;101085.30;1772975;80;27437;-60
2022/01/01 08:39:16;;;;;;;25.85;14.55;;;;;;;4.88;82.33;101086.75;1772717;80;25719;-60
2022/01/01 08:41:45;;;;;;;24.40;14.65;;;;;;;4.94;82.52;101083.25;1771922;80;25903;-61
2022/01/01 08:44:13;;;;;;;23.15;14.65;;;;;;;5.01;82.62;101079.75;1757792;81;25783;-61
2022/01/01 08:46:43;;;;;;;23.00;13.90;;;;;;;5.07;82.75;101083.37;1762965;80;26417;-61
2022/01/01 08:49:10;;;;;;;23.07;13.00;;;;;;;5.09;82.70;101086.80;1772287;80;27473;-60
2022/01/01 08:51:41;;;;;;;23.25;13.40;;;;;;;5.16;82.57;101084.14;1769661;80;25661;-61
2022/01/01 08:54:10;;;;;;;25.45;13.98;;;;;;;5.22;82.65;101078.91;1757531;81;25757;-61
2022/01/01 08:56:36;;;;;;;22.95;13.68;;;;;;;5.33;82.66;101078.25;1757944;81;26309;-61
2022/01/01 08:59:03;;;;;;;21.82;13.78;;;;;;;5.43;82.47;101080.73;1767038;80;25747;-61
2022/01/01 09:01:30;;;;;;;22.87;13.70;;;;;;;5.48;82.28;101078.62;1780515;80;28212;-61
2022/01/01 09:03:59;;;;;;;25.65;14.38;;;;;;;5.53;82.06;101078.82;1780278;80;25554;-60
2022/01/01 09:06:31;;;;;;;38.58;20.75;;;;;;;5.57;82.02;101072.32;1780540;80;25775;-61
2022/01/01 09:09:00;;;;;;;52.50;27.48;;;;;;;5.66;82.43;101072.23;1779767;80;25788;-61
2022/01/01 09:11:27;;;;;;;56.65;30.80;;;;;;;5.80;82.50;101067.73;1780496;80;25725;-61
2022/01/01 09:13:55;;;;;;;64.82;31.75;;;;;;;5.91;82.33;101070.20;1776809;80;28550;-61
2022/01/01 09:16:29;;;;;;;55.25;28.50;;;;;;;5.98;81.84;101068.84;1771700;80;25857;-60
2022/01/01 09:18:52;;;;;;;47.17;26.62;;;;;;;6.05;81.39;101074.20;1771945;80;25737;-61
2022/01/01 09:21:21;;;;;;;50.00;27.35;;;;;;;6.16;81.48;101077.98;1772321;80;25856;-59
2022/01/01 09:23:48;;;;;;;47.08;27.27;;;;;;;6.24;81.22;101080.52;1772721;80;25745;-60
2022/01/01 09:26:15;;;;;;;49.55;27.55;;;;;;;6.23;80.66;101080.14;1772757;80;27629;-60
2022/01/01 09:28:42;;;;;;;49.42;25.95;;;;;;;6.25;80.41;101081.39;1777345;80;25775;-61
2022/01/01 09:31:08;;;;;;;53.70;29.55;;;;;;;6.21;79.84;101075.86;1780491;80;26523;-61
2022/01/01 09:33:37;;;;;;;49.85;25.85;;;;;;;6.19;79.89;101073.30;1780466;80;26543;-60
2022/01/01 09:36:07;;;;;;;41.13;23.15;;;;;;;6.15;79.52;101075.78;1780509;80;27296;-59
2022/01/01 09:38:34;;;;;;;46.35;24.18;;;;;;;6.16;79.37;101082.00;1780375;80;27458;-59
2022/01/01 09:41:03;;;;;;;36.05;21.45;;;;;;;6.14;79.28;101079.41;1780419;80;25427;-59
2022/01/01 09:43:33;;;;;;;32.35;19.98;;;;;;;6.06;78.93;101076.38;1774411;80;25747;-59
2022/01/01 09:46:02;;;;;;;32.93;20.25;;;;;;;5.99;78.85;101081.70;1772588;80;25791;-59
2022/01/01 09:48:30;;;;;;;35.13;19.60;;;;;;;5.90;78.71;101076.50;1773018;80;25796;-59
2022/01/01 09:51:01;;;;;;;27.15;17.62;;;;;;;5.90;79.29;101088.51;1779798;78;28160;-60
2022/01/01 09:53:31;;;;;;;29.50;17.37;;;;;;;5.86;78.99;101081.17;1777421;80;25802;-60
2022/01/01 09:56:01;;;;;;;38.38;20.43;;;;;;;5.82;78.94;101075.64;1780125;80;25661;-60
2022/01/01 09:58:34;;;;;;;31.50;17.45;;;;;;;5.81;79.14;101072.59;1780588;80;25741;-60
2022/01/01 10:01:03;;;;;;;28.17;18.50;;;;;;;5.77;79.07;101070.59;1777537;80;25740;-60
2022/01/01 10:03:38;;;;;;;39.80;20.05;;;;;;;5.73;79.11;101074.43;1772829;80;27423;-61
2022/01/01 10:06:15;;;;;;;33.67;19.87;;;;;;;5.73;79.14;101073.09;1766581;80;26028;-60
2022/01/01 10:08:41;;;;;;;37.00;20.95;;;;;;;5.76;79.46;101069.36;1771697;80;25840;-60
2022/01/01 10:11:10;;;;;;;36.68;20.48;;;;;;;5.80;79.65;101066.41;1772621;80;26459;-60
2022/01/01 10:13:39;;;;;;;34.88;20.97;;;;;;;5.85;79.75;101070.58;1771777;80;25870;-61
2022/01/01 10:16:11;;;;;;;39.60;19.12;;;;;;;5.95;79.90;101067.70;1766283;80;28180;-61
2022/01/01 10:18:52;;;;;;;28.30;15.55;;;;;;;5.99;79.50;101065.26;1759287;81;25846;-60
2022/01/01 10:21:27;;;;;;;26.42;16.45;;;;;;;6.05;79.45;101061.33;1759093;81;25728;-61
2022/01/01 10:23:58;;;;;;;29.60;17.50;;;;;;;6.15;79.73;101070.92;1781901;79;26196;-61
2022/01/01 10:29:28;;;;;;;32.50;18.10;;;;;;;6.32;79.60;101073.34;1793900;80;27456;-61
2022/01/01 10:32:04;;;;;;;30.17;15.98;;;;;;;6.42;79.68;101072.25;1766965;79;42996;-61
2022/01/01 10:34:38;;;;;;;29.57;15.18;;;;;;;6.49;79.48;101073.58;1765063;80;25744;-61
2022/01/01 10:37:07;;;;;;;31.15;16.60;;;;;;;6.53;79.37;101068.88;1793141;79;25791;-61
2022/01/01 10:39:49;;;;;;;26.95;16.12;;;;;;;6.56;79.12;101072.20;1793806;79;26380;-59
2022/01/01 10:42:17;;;;;;;33.00;15.58;;;;;;;6.58;79.00;101072.97;1794051;80;27441;-60
2022/01/01 10:44:51;;;;;;;26.48;14.80;;;;;;;6.60;78.87;101069.30;1791264;79;25863;-62
2022/01/01 10:47:27;;;;;;;27.27;15.83;;;;;;;6.61;78.68;101073.69;1768431;80;25768;-60
2022/01/01 10:50:03;;;;;;;25.88;15.48;;;;;;;6.63;78.49;101069.11;1769903;78;25730;-60
2022/01/01 10:52:29;;;;;;;33.10;16.95;;;;;;;6.65;78.39;101065.36;1777487;79;25908;-60
2022/01/01 10:55:06;;;;;;;30.50;18.73;;;;;;;6.71;78.63;101069.44;1822521;78;28195;-61
2022/01/01 10:57:58;;;;;;;35.80;20.65;;;;;;;6.73;78.21;101067.53;1822807;78;25693;-61
2022/01/01 11:00:27;;;;;;;38.88;22.48;;;;;;;6.72;78.03;101072.00;1822407;78;25681;-61
2022/01/01 11:02:57;;;;;;;42.20;23.95;;;;;;;6.68;77.91;101075.02;1815481;78;25804;-60
2022/01/01 11:05:33;;;;;;;51.58;27.67;;;;;;;6.64;77.69;101070.83;1767042;81;25808;-61
2022/01/01 11:08:02;;;;;;;50.60;26.17;;;;;;;6.58;77.65;101066.74;1798618;79;27503;-61
2022/01/01 11:10:30;;;;;;;44.03;25.20;;;;;;;6.50;77.64;101076.59;1799578;79;26276;-61
2022/01/01 11:12:59;;;;;;;47.70;25.35;;;;;;;6.39;77.48;101073.31;1779854;79;25490;-61
2022/01/01 11:15:28;;;;;;;39.60;21.80;;;;;;;6.33;77.73;101068.84;1767620;81;25786;-61
2022/01/01 11:18:01;;;;;;;43.08;23.00;;;;;;;6.31;77.82;101077.47;1767953;81;25750;-60
2022/01/01 11:20:36;;;;;;;38.53;21.10;;;;;;;6.27;77.99;101083.50;1767755;81;28182;-61
2022/01/01 11:23:10;;;;;;;43.38;22.70;;;;;;;6.23;77.65;101076.12;1774233;79;25772;-60
2022/01/01 11:25:38;;;;;;;;;;;;;;;6.22;77.67;101074.45;1772700;79;25705;-60
2022/01/01 11:28:10;;;;;;;25.77;15.48;;;;;;;6.18;77.67;101077.41;1822934;78;25774;-61